Muldon, Mississippi
Current Conditions -  °F | °C
As of 12:35 AM on Tuesday 21 Oct 2014 (Local Time) from KM40 Reporting Station
Haze Haze  
Wind Chill: 48°   Ceiling: Unl
Heat Index: 48°   Visibility: 4mi
Dew Point: 34°   Wind: 0mph
Humidity: 57%   Direction: NA
Pressure: 30.05"   Gusts: NA
Location:  33.8251°N, 88.6185°W
Report Text: KM40 210535Z AUTO 00000KT 4SM HZ CLR 09/01 A3005 RMK AO2
Loading
Personal Weather Stations






























Interactive Weather Map
Tropical Storm Tracking
New forecast layout! Learn more

10-Day Weather Forecast

Advertisements
Track Severe Weather on mobile